sensor_id;sensor_type;location;lat;lon;timestamp;pressure;altitude;pressure_sealevel;temperature;humidity
68077;BME280;54866;53.458;14.540;2022-08-04T00:01:38;100695.84;;;26.21;37.51
68077;BME280;54866;53.458;14.540;2022-08-04T00:04:15;100692.38;;;26.21;37.45
68077;BME280;54866;53.458;14.540;2022-08-04T00:07:03;100692.25;;;26.22;37.36
68077;BME280;54866;53.458;14.540;2022-08-04T00:09:41;100691.74;;;26.21;37.36
68077;BME280;54866;53.458;14.540;2022-08-04T00:12:14;100691.34;;;26.18;37.26
68077;BME280;54866;53.458;14.540;2022-08-04T00:14:48;100693.23;;;26.17;37.30
68077;BME280;54866;53.458;14.540;2022-08-04T00:17:21;100691.61;;;26.12;37.29
68077;BME280;54866;53.458;14.540;2022-08-04T00:19:57;100693.89;;;26.09;37.50
68077;BME280;54866;53.458;14.540;2022-08-04T00:22:29;100694.42;;;26.01;37.79
68077;BME280;54866;53.458;14.540;2022-08-04T00:25:02;100696.75;;;25.88;38.14
68077;BME280;54866;53.458;14.540;2022-08-04T00:27:33;100694.09;;;25.72;38.62
68077;BME280;54866;53.458;14.540;2022-08-04T00:30:04;100692.60;;;25.54;39.08
68077;BME280;54866;53.458;14.540;2022-08-04T00:32:35;100696.45;;;25.35;39.63
68077;BME280;54866;53.458;14.540;2022-08-04T00:35:07;100695.04;;;25.21;40.02
68077;BME280;54866;53.458;14.540;2022-08-04T00:37:38;100696.33;;;25.10;39.97
68077;BME280;54866;53.458;14.540;2022-08-04T00:40:15;100696.73;;;25.05;40.50
68077;BME280;54866;53.458;14.540;2022-08-04T00:42:57;100697.73;;;24.93;41.06
68077;BME280;54866;53.458;14.540;2022-08-04T00:46:02;100697.29;;;24.80;41.38
68077;BME280;54866;53.458;14.540;2022-08-04T00:49:02;100694.25;;;24.66;42.63
68077;BME280;54866;53.458;14.540;2022-08-04T00:51:46;100693.25;;;24.48;43.94
68077;BME280;54866;53.458;14.540;2022-08-04T00:54:25;100693.94;;;24.34;44.47
68077;BME280;54866;53.458;14.540;2022-08-04T00:57:05;100693.56;;;24.19;45.44
68077;BME280;54866;53.458;14.540;2022-08-04T00:59:50;100692.71;;;24.04;46.00
68077;BME280;54866;53.458;14.540;2022-08-04T01:02:34;100698.79;;;23.93;46.30
68077;BME280;54866;53.458;14.540;2022-08-04T01:05:11;100693.84;;;23.84;45.86
68077;BME280;54866;53.458;14.540;2022-08-04T01:07:58;100695.01;;;23.83;45.72
68077;BME280;54866;53.458;14.540;2022-08-04T01:10:39;100697.75;;;23.81;45.60
68077;BME280;54866;53.458;14.540;2022-08-04T01:13:36;100693.88;;;23.79;45.70
68077;BME280;54866;53.458;14.540;2022-08-04T01:16:16;100690.74;;;23.75;46.01
68077;BME280;54866;53.458;14.540;2022-08-04T01:18:56;100691.91;;;23.70;46.14
68077;BME280;54866;53.458;14.540;2022-08-04T01:21:51;100689.09;;;23.66;46.13
68077;BME280;54866;53.458;14.540;2022-08-04T01:24:50;100692.61;;;23.68;45.47
68077;BME280;54866;53.458;14.540;2022-08-04T01:27:41;100690.08;;;23.76;45.10
68077;BME280;54866;53.458;14.540;2022-08-04T01:30:15;100694.91;;;23.84;44.90
68077;BME280;54866;53.458;14.540;2022-08-04T01:32:50;100693.42;;;23.93;44.63
68077;BME280;54866;53.458;14.540;2022-08-04T01:35:24;100696.63;;;23.99;44.74
68077;BME280;54866;53.458;14.540;2022-08-04T01:38:01;100696.02;;;24.00;44.56
68077;BME280;54866;53.458;14.540;2022-08-04T01:40:34;100699.86;;;24.03;44.17
68077;BME280;54866;53.458;14.540;2022-08-04T01:43:06;100696.78;;;24.10;44.24
68077;BME280;54866;53.458;14.540;2022-08-04T01:45:37;100697.80;;;24.14;44.53
68077;BME280;54866;53.458;14.540;2022-08-04T01:48:08;100692.63;;;24.12;44.71
68077;BME280;54866;53.458;14.540;2022-08-04T01:50:41;100693.79;;;24.07;45.35
68077;BME280;54866;53.458;14.540;2022-08-04T01:53:11;100692.98;;;24.00;45.55
68077;BME280;54866;53.458;14.540;2022-08-04T01:55:42;100693.05;;;23.95;45.76
68077;BME280;54866;53.458;14.540;2022-08-04T01:58:13;100695.29;;;23.92;45.93
68077;BME280;54866;53.458;14.540;2022-08-04T02:00:55;100693.13;;;23.86;46.25
68077;BME280;54866;53.458;14.540;2022-08-04T02:03:25;100691.77;;;23.83;46.24
68077;BME280;54866;53.458;14.540;2022-08-04T02:06:02;100694.58;;;23.78;46.66
68077;BME280;54866;53.458;14.540;2022-08-04T02:08:38;100687.72;;;23.72;46.45
68077;BME280;54866;53.458;14.540;2022-08-04T02:11:15;100689.58;;;23.70;46.74
68077;BME280;54866;53.458;14.540;2022-08-04T02:13:56;100685.77;;;23.69;46.89
68077;BME280;54866;53.458;14.540;2022-08-04T02:16:36;100685.98;;;23.68;46.91
68077;BME280;54866;53.458;14.540;2022-08-04T02:19:17;100687.80;;;23.64;47.18
68077;BME280;54866;53.458;14.540;2022-08-04T02:22:05;100680.66;;;23.56;47.55
68077;BME280;54866;53.458;14.540;2022-08-04T02:24:40;100681.43;;;23.53;47.51
68077;BME280;54866;53.458;14.540;2022-08-04T02:27:13;100678.33;;;23.47;47.90
68077;BME280;54866;53.458;14.540;2022-08-04T02:29:48;100679.58;;;23.42;47.79
68077;BME280;54866;53.458;14.540;2022-08-04T02:32:24;100677.12;;;23.38;47.81
68077;BME280;54866;53.458;14.540;2022-08-04T02:34:58;100680.89;;;23.34;47.94
68077;BME280;54866;53.458;14.540;2022-08-04T02:37:32;100682.91;;;23.33;48.22
68077;BME280;54866;53.458;14.540;2022-08-04T02:40:04;100679.23;;;23.28;48.27
68077;BME280;54866;53.458;14.540;2022-08-04T02:42:35;100681.20;;;23.26;48.10
68077;BME280;54866;53.458;14.540;2022-08-04T02:45:07;100678.30;;;23.26;48.10
68077;BME280;54866;53.458;14.540;2022-08-04T02:47:38;100676.11;;;23.26;48.15
68077;BME280;54866;53.458;14.540;2022-08-04T02:50:12;100676.55;;;23.25;48.00
68077;BME280;54866;53.458;14.540;2022-08-04T02:52:43;100673.71;;;23.25;48.00
68077;BME280;54866;53.458;14.540;2022-08-04T02:55:14;100671.23;;;23.23;48.04
68077;BME280;54866;53.458;14.540;2022-08-04T02:57:47;100674.20;;;23.24;48.35
68077;BME280;54866;53.458;14.540;2022-08-04T03:00:19;100674.08;;;23.21;48.33
68077;BME280;54866;53.458;14.540;2022-08-04T03:02:58;100672.38;;;23.19;48.54
68077;BME280;54866;53.458;14.540;2022-08-04T03:05:38;100670.72;;;23.19;48.40
68077;BME280;54866;53.458;14.540;2022-08-04T03:08:43;100669.81;;;23.18;48.51
68077;BME280;54866;53.458;14.540;2022-08-04T03:11:33;100672.48;;;23.10;48.80
68077;BME280;54866;53.458;14.540;2022-08-04T03:14:19;100675.05;;;23.01;48.87
68077;BME280;54866;53.458;14.540;2022-08-04T03:23:41;100672.83;;;22.86;49.45
68077;BME280;54866;53.458;14.540;2022-08-04T03:26:45;100673.34;;;22.88;49.43
68077;BME280;54866;53.458;14.540;2022-08-04T03:29:41;100674.00;;;22.95;49.29
68077;BME280;54866;53.458;14.540;2022-08-04T03:35:35;100675.22;;;22.99;49.20
68077;BME280;54866;53.458;14.540;2022-08-04T03:38:37;100681.27;;;23.02;49.26
68077;BME280;54866;53.458;14.540;2022-08-04T03:41:29;100683.80;;;23.03;49.10
68077;BME280;54866;53.458;14.540;2022-08-04T03:47:31;100683.42;;;23.01;49.21
68077;BME280;54866;53.458;14.540;2022-08-04T03:50:24;100684.05;;;23.00;49.02
68077;BME280;54866;53.458;14.540;2022-08-04T03:53:14;100680.98;;;22.90;49.64
68077;BME280;54866;53.458;14.540;2022-08-04T03:59:36;100685.41;;;22.77;49.70
68077;BME280;54866;53.458;14.540;2022-08-04T04:02:47;100684.81;;;22.81;50.08
68077;BME280;54866;53.458;14.540;2022-08-04T04:05:52;100679.17;;;22.75;50.72
68077;BME280;54866;53.458;14.540;2022-08-04T04:08:46;100686.05;;;22.69;50.75
68077;BME280;54866;53.458;14.540;2022-08-04T04:11:37;100686.27;;;22.76;50.46
68077;BME280;54866;53.458;14.540;2022-08-04T04:14:22;100685.20;;;22.81;50.59
68077;BME280;54866;53.458;14.540;2022-08-04T04:17:12;100688.85;;;22.77;51.13
68077;BME280;54866;53.458;14.540;2022-08-04T04:20:19;100690.60;;;22.66;51.39
68077;BME280;54866;53.458;14.540;2022-08-04T04:23:03;100688.08;;;22.51;52.12
68077;BME280;54866;53.458;14.540;2022-08-04T04:25:50;100688.47;;;22.37;52.79
68077;BME280;54866;53.458;14.540;2022-08-04T04:28:54;100691.97;;;22.26;53.12
68077;BME280;54866;53.458;14.540;2022-08-04T04:31:37;100692.77;;;22.18;53.48
68077;BME280;54866;53.458;14.540;2022-08-04T04:34:20;100692.78;;;22.14;53.71
68077;BME280;54866;53.458;14.540;2022-08-04T04:37:06;100688.09;;;22.13;53.92
68077;BME280;54866;53.458;14.540;2022-08-04T04:39:49;100691.39;;;22.10;54.04
68077;BME280;54866;53.458;14.540;2022-08-04T04:42:46;100690.45;;;22.10;54.24
68077;BME280;54866;53.458;14.540;2022-08-04T04:45:28;100695.21;;;22.12;54.33
68077;BME280;54866;53.458;14.540;2022-08-04T04:48:06;100694.61;;;22.15;54.41
68077;BME280;54866;53.458;14.540;2022-08-04T04:50:50;100691.53;;;22.20;54.48
68077;BME280;54866;53.458;14.540;2022-08-04T04:53:26;100696.05;;;22.29;54.26
68077;BME280;54866;53.458;14.540;2022-08-04T04:56:04;100693.50;;;22.38;54.17
68077;BME280;54866;53.458;14.540;2022-08-04T04:58:35;100690.95;;;22.48;53.98
68077;BME280;54866;53.458;14.540;2022-08-04T05:01:19;100695.79;;;22.58;53.85
68077;BME280;54866;53.458;14.540;2022-08-04T05:04:10;100697.24;;;22.67;53.72
68077;BME280;54866;53.458;14.540;2022-08-04T05:06:59;100696.88;;;22.74;53.85
68077;BME280;54866;53.458;14.540;2022-08-04T05:09:49;100692.02;;;22.86;53.52
68077;BME280;54866;53.458;14.540;2022-08-04T05:12:51;100693.98;;;22.93;53.59
68077;BME280;54866;53.458;14.540;2022-08-04T05:15:30;100694.76;;;23.02;53.65
68077;BME280;54866;53.458;14.540;2022-08-04T05:18:04;100692.05;;;23.08;53.65
68077;BME280;54866;53.458;14.540;2022-08-04T05:20:39;100693.95;;;23.16;53.57
68077;BME280;54866;53.458;14.540;2022-08-04T05:23:14;100696.00;;;23.24;53.51
68077;BME280;54866;53.458;14.540;2022-08-04T05:25:50;100694.41;;;23.34;53.41
68077;BME280;54866;53.458;14.540;2022-08-04T05:28:25;100691.30;;;23.48;52.91
68077;BME280;54866;53.458;14.540;2022-08-04T05:31:00;100692.50;;;23.59;53.20
68077;BME280;54866;53.458;14.540;2022-08-04T05:33:37;100695.15;;;23.72;52.63
68077;BME280;54866;53.458;14.540;2022-08-04T05:36:13;100692.27;;;23.83;52.37
68077;BME280;54866;53.458;14.540;2022-08-04T05:38:47;100694.26;;;24.00;51.90
68077;BME280;54866;53.458;14.540;2022-08-04T05:41:19;100697.73;;;24.43;51.54
68077;BME280;54866;53.458;14.540;2022-08-04T05:43:50;100691.02;;;26.25;47.99
68077;BME280;54866;53.458;14.540;2022-08-04T05:46:20;100685.34;;;28.35;43.62
68077;BME280;54866;53.458;14.540;2022-08-04T05:48:50;100685.95;;;30.13;40.26
68077;BME280;54866;53.458;14.540;2022-08-04T05:51:21;100674.42;;;31.70;37.87
68077;BME280;54866;53.458;14.540;2022-08-04T05:53:53;100674.63;;;33.12;34.99
68077;BME280;54866;53.458;14.540;2022-08-04T05:56:24;100673.27;;;34.48;33.24
68077;BME280;54866;53.458;14.540;2022-08-04T05:58:54;100667.80;;;35.72;30.67
68077;BME280;54866;53.458;14.540;2022-08-04T06:01:25;100666.23;;;36.68;29.27
68077;BME280;54866;53.458;14.540;2022-08-04T06:03:56;100667.35;;;37.68;28.09
68077;BME280;54866;53.458;14.540;2022-08-04T06:06:28;100662.42;;;38.64;26.04
68077;BME280;54866;53.458;14.540;2022-08-04T06:08:58;100667.52;;;39.36;25.10
68077;BME280;54866;53.458;14.540;2022-08-04T06:11:29;100663.98;;;39.94;24.04
68077;BME280;54866;53.458;14.540;2022-08-04T06:14:02;100664.45;;;40.15;23.56
68077;BME280;54866;53.458;14.540;2022-08-04T06:16:37;100665.40;;;40.51;22.78
68077;BME280;54866;53.458;14.540;2022-08-04T06:19:10;100662.24;;;40.71;22.27
68077;BME280;54866;53.458;14.540;2022-08-04T06:21:42;100663.39;;;40.78;21.80
68077;BME280;54866;53.458;14.540;2022-08-04T06:24:16;100665.36;;;40.77;21.74
68077;BME280;54866;53.458;14.540;2022-08-04T06:26:48;100663.39;;;41.11;21.85
68077;BME280;54866;53.458;14.540;2022-08-04T06:29:20;100668.31;;;41.83;21.15
68077;BME280;54866;53.458;14.540;2022-08-04T06:31:54;100668.80;;;42.18;19.94
68077;BME280;54866;53.458;14.540;2022-08-04T06:34:30;100668.06;;;41.88;20.21
68077;BME280;54866;53.458;14.540;2022-08-04T06:37:01;100672.92;;;41.60;20.24
68077;BME280;54866;53.458;14.540;2022-08-04T06:39:33;100669.01;;;41.70;20.65
68077;BME280;54866;53.458;14.540;2022-08-04T06:42:05;100669.84;;;42.09;20.19
68077;BME280;54866;53.458;14.540;2022-08-04T06:44:35;100666.03;;;42.03;19.57
68077;BME280;54866;53.458;14.540;2022-08-04T06:47:07;100671.90;;;41.87;20.15
68077;BME280;54866;53.458;14.540;2022-08-04T06:49:39;100670.83;;;41.92;20.14
68077;BME280;54866;53.458;14.540;2022-08-04T06:52:10;100667.74;;;42.11;20.14
68077;BME280;54866;53.458;14.540;2022-08-04T06:54:44;100665.88;;;42.43;19.46
68077;BME280;54866;53.458;14.540;2022-08-04T06:57:16;100668.08;;;42.10;19.52
68077;BME280;54866;53.458;14.540;2022-08-04T06:59:50;100664.98;;;41.16;19.98
68077;BME280;54866;53.458;14.540;2022-08-04T07:02:22;100671.95;;;39.41;22.03
68077;BME280;54866;53.458;14.540;2022-08-04T07:04:53;100675.48;;;37.91;23.68
68077;BME280;54866;53.458;14.540;2022-08-04T07:07:25;100677.89;;;36.57;25.22
68077;BME280;54866;53.458;14.540;2022-08-04T07:09:55;100682.86;;;35.02;26.99
68077;BME280;54866;53.458;14.540;2022-08-04T07:12:26;100684.80;;;33.85;28.75
68077;BME280;54866;53.458;14.540;2022-08-04T07:14:56;100684.61;;;32.98;30.11
68077;BME280;54866;53.458;14.540;2022-08-04T07:17:28;100684.50;;;32.22;31.49
68077;BME280;54866;53.458;14.540;2022-08-04T07:19:58;100686.38;;;31.66;32.31
68077;BME280;54866;53.458;14.540;2022-08-04T07:22:29;100686.51;;;31.21;33.45
68077;BME280;54866;53.458;14.540;2022-08-04T07:25:00;100686.21;;;30.93;34.14
68077;BME280;54866;53.458;14.540;2022-08-04T07:27:29;100684.56;;;30.83;34.49
68077;BME280;54866;53.458;14.540;2022-08-04T07:29:59;100680.61;;;30.75;34.55
68077;BME280;54866;53.458;14.540;2022-08-04T07:32:29;100679.64;;;30.66;35.14
68077;BME280;54866;53.458;14.540;2022-08-04T07:35:01;100680.85;;;30.52;35.39
68077;BME280;54866;53.458;14.540;2022-08-04T07:37:31;100682.09;;;30.55;35.34
68077;BME280;54866;53.458;14.540;2022-08-04T07:40:01;100676.49;;;30.56;35.39
68077;BME280;54866;53.458;14.540;2022-08-04T07:42:32;100675.64;;;30.57;35.60
68077;BME280;54866;53.458;14.540;2022-08-04T07:45:02;100677.05;;;30.64;35.65
68077;BME280;54866;53.458;14.540;2022-08-04T07:47:32;100675.44;;;30.77;35.65
68077;BME280;54866;53.458;14.540;2022-08-04T07:50:02;100678.22;;;30.82;35.62
68077;BME280;54866;53.458;14.540;2022-08-04T07:52:32;100675.07;;;30.83;35.42
68077;BME280;54866;53.458;14.540;2022-08-04T07:55:03;100678.71;;;30.69;35.36
68077;BME280;54866;53.458;14.540;2022-08-04T07:57:33;100679.15;;;30.58;36.08
68077;BME280;54866;53.458;14.540;2022-08-04T08:00:04;100677.60;;;30.71;35.88
68077;BME280;54866;53.458;14.540;2022-08-04T08:02:35;100678.48;;;30.76;35.84
68077;BME280;54866;53.458;14.540;2022-08-04T08:05:08;100670.70;;;30.78;36.02
68077;BME280;54866;53.458;14.540;2022-08-04T08:07:38;100671.27;;;30.85;36.02
68077;BME280;54866;53.458;14.540;2022-08-04T08:10:12;100669.45;;;30.87;35.99
68077;BME280;54866;53.458;14.540;2022-08-04T08:12:42;100670.89;;;30.80;36.03
68077;BME280;54866;53.458;14.540;2022-08-04T08:15:13;100670.64;;;30.73;35.99
68077;BME280;54866;53.458;14.540;2022-08-04T08:17:42;100666.20;;;30.80;36.01
68077;BME280;54866;53.458;14.540;2022-08-04T08:20:13;100666.19;;;30.88;36.03
68077;BME280;54866;53.458;14.540;2022-08-04T08:22:43;100666.09;;;30.94;36.03
68077;BME280;54866;53.458;14.540;2022-08-04T08:25:12;100659.70;;;31.07;35.99
68077;BME280;54866;53.458;14.540;2022-08-04T08:27:42;100660.05;;;31.29;35.73
68077;BME280;54866;53.458;14.540;2022-08-04T08:30:13;100661.25;;;31.50;35.13
68077;BME280;54866;53.458;14.540;2022-08-04T08:32:42;100659.67;;;31.61;34.94
68077;BME280;54866;53.458;14.540;2022-08-04T08:35:12;100657.48;;;31.57;35.08
68077;BME280;54866;53.458;14.540;2022-08-04T08:37:46;100655.71;;;31.54;35.17
68077;BME280;54866;53.458;14.540;2022-08-04T08:40:25;100661.02;;;31.61;34.35
68077;BME280;54866;53.458;14.540;2022-08-04T08:43:18;100662.10;;;31.81;34.13
68077;BME280;54866;53.458;14.540;2022-08-04T08:49:16;100662.55;;;31.81;34.58
68077;BME280;54866;53.458;14.540;2022-08-04T08:52:01;100656.85;;;31.88;34.77
68077;BME280;54866;53.458;14.540;2022-08-04T08:54:50;100657.06;;;31.88;34.55
68077;BME280;54866;53.458;14.540;2022-08-04T08:57:36;100660.61;;;32.15;34.40
68077;BME280;54866;53.458;14.540;2022-08-04T09:00:15;100656.41;;;32.86;33.62
68077;BME280;54866;53.458;14.540;2022-08-04T09:03:26;100656.90;;;33.36;33.29
68077;BME280;54866;53.458;14.540;2022-08-04T09:06:13;100658.58;;;33.98;32.07
68077;BME280;54866;53.458;14.540;2022-08-04T09:09:02;100656.01;;;35.00;30.37
68077;BME280;54866;53.458;14.540;2022-08-04T09:11:41;100644.94;;;35.08;30.13
68077;BME280;54866;53.458;14.540;2022-08-04T09:14:19;100648.89;;;34.83;30.51
68077;BME280;54866;53.458;14.540;2022-08-04T09:16:53;100648.83;;;34.99;29.77
68077;BME280;54866;53.458;14.540;2022-08-04T09:19:32;100643.52;;;35.25;29.65
68077;BME280;54866;53.458;14.540;2022-08-04T09:22:08;100643.87;;;35.31;29.89
68077;BME280;54866;53.458;14.540;2022-08-04T09:24:49;100647.75;;;35.24;29.98
68077;BME280;54866;53.458;14.540;2022-08-04T09:27:30;100644.15;;;35.48;29.32
68077;BME280;54866;53.458;14.540;2022-08-04T09:30:07;100643.24;;;35.25;28.96
68077;BME280;54866;53.458;14.540;2022-08-04T09:32:43;100640.24;;;34.93;29.15
68077;BME280;54866;53.458;14.540;2022-08-04T09:35:24;100645.27;;;34.54;29.42
68077;BME280;54866;53.458;14.540;2022-08-04T09:38:08;100640.09;;;34.47;29.47
68077;BME280;54866;53.458;14.540;2022-08-04T09:40:47;100638.88;;;34.75;29.67
68077;BME280;54866;53.458;14.540;2022-08-04T09:43:25;100642.66;;;34.94;29.45
68077;BME280;54866;53.458;14.540;2022-08-04T09:46:01;100644.03;;;34.95;29.18
68077;BME280;54866;53.458;14.540;2022-08-04T09:48:36;100640.70;;;35.18;27.83
68077;BME280;54866;53.458;14.540;2022-08-04T09:51:19;100634.56;;;35.56;27.64
68077;BME280;54866;53.458;14.540;2022-08-04T09:54:00;100634.75;;;36.11;27.26
68077;BME280;54866;53.458;14.540;2022-08-04T09:56:37;100634.00;;;36.42;26.12
68077;BME280;54866;53.458;14.540;2022-08-04T09:59:15;100638.77;;;36.58;25.83
68077;BME280;54866;53.458;14.540;2022-08-04T10:01:47;100631.64;;;37.13;25.35
68077;BME280;54866;53.458;14.540;2022-08-04T10:04:19;100625.92;;;37.70;25.03
68077;BME280;54866;53.458;14.540;2022-08-04T10:07:08;100625.85;;;38.08;24.35
68077;BME280;54866;53.458;14.540;2022-08-04T10:09:51;100626.38;;;38.52;23.89
68077;BME280;54866;53.458;14.540;2022-08-04T10:12:38;100619.62;;;38.75;22.77
68077;BME280;54866;53.458;14.540;2022-08-04T10:15:15;100621.30;;;38.77;22.53
68077;BME280;54866;53.458;14.540;2022-08-04T10:18:10;100616.10;;;38.70;22.58
68077;BME280;54866;53.458;14.540;2022-08-04T10:21:03;100609.73;;;38.48;22.18
68077;BME280;54866;53.458;14.540;2022-08-04T10:23:45;100613.55;;;38.24;23.02
68077;BME280;54866;53.458;14.540;2022-08-04T10:26:28;100615.59;;;37.96;22.71
68077;BME280;54866;53.458;14.540;2022-08-04T10:29:04;100614.13;;;37.86;22.71
68077;BME280;54866;53.458;14.540;2022-08-04T10:31:41;100613.23;;;37.75;22.89
68077;BME280;54866;53.458;14.540;2022-08-04T10:34:15;100605.41;;;37.92;22.78
68077;BME280;54866;53.458;14.540;2022-08-04T10:36:52;100600.70;;;38.22;22.35
68077;BME280;54866;53.458;14.540;2022-08-04T10:39:37;100601.46;;;38.34;20.94
68077;BME280;54866;53.458;14.540;2022-08-04T10:42:15;100609.63;;;38.34;20.93
68077;BME280;54866;53.458;14.540;2022-08-04T10:44:59;100599.84;;;38.48;21.08
68077;BME280;54866;53.458;14.540;2022-08-04T10:47:37;100605.08;;;38.33;21.17
68077;BME280;54866;53.458;14.540;2022-08-04T10:50:11;100596.83;;;38.19;21.58
68077;BME280;54866;53.458;14.540;2022-08-04T10:52:47;100589.54;;;38.17;21.49
68077;BME280;54866;53.458;14.540;2022-08-04T10:55:27;100587.67;;;38.15;21.75
68077;BME280;54866;53.458;14.540;2022-08-04T10:58:03;100588.83;;;38.10;21.33
68077;BME280;54866;53.458;14.540;2022-08-04T11:00:38;100580.35;;;37.94;21.61
68077;BME280;54866;53.458;14.540;2022-08-04T11:03:15;100584.23;;;38.06;21.51
68077;BME280;54866;53.458;14.540;2022-08-04T11:05:51;100590.27;;;38.01;21.57
68077;BME280;54866;53.458;14.540;2022-08-04T11:08:27;100590.48;;;38.08;21.26
68077;BME280;54866;53.458;14.540;2022-08-04T11:11:02;100579.14;;;38.09;21.33
68077;BME280;54866;53.458;14.540;2022-08-04T11:13:39;100586.33;;;38.03;21.62
68077;BME280;54866;53.458;14.540;2022-08-04T11:16:18;100572.02;;;37.89;21.52
68077;BME280;54866;53.458;14.540;2022-08-04T11:19:01;100568.95;;;38.05;21.46
68077;BME280;54866;53.458;14.540;2022-08-04T11:21:38;100565.85;;;38.28;21.24
68077;BME280;54866;53.458;14.540;2022-08-04T11:24:13;100569.73;;;38.23;21.58
68077;BME280;54866;53.458;14.540;2022-08-04T11:26:50;100565.38;;;38.27;21.90
68077;BME280;54866;53.458;14.540;2022-08-04T11:29:28;100568.25;;;38.25;21.35
68077;BME280;54866;53.458;14.540;2022-08-04T11:32:04;100565.72;;;38.21;21.00
68077;BME280;54866;53.458;14.540;2022-08-04T11:34:39;100555.23;;;38.14;21.22
68077;BME280;54866;53.458;14.540;2022-08-04T11:37:18;100547.56;;;37.95;21.45
68077;BME280;54866;53.458;14.540;2022-08-04T11:39:52;100545.99;;;37.82;21.29
68077;BME280;54866;53.458;14.540;2022-08-04T11:42:20;100550.34;;;37.70;21.48
68077;BME280;54866;53.458;14.540;2022-08-04T11:44:54;100549.86;;;37.69;21.82
68077;BME280;54866;53.458;14.540;2022-08-04T11:47:31;100552.73;;;37.85;21.59
68077;BME280;54866;53.458;14.540;2022-08-04T11:50:07;100538.96;;;38.06;21.36
68077;BME280;54866;53.458;14.540;2022-08-04T11:52:40;100554.33;;;38.24;21.00
68077;BME280;54866;53.458;14.540;2022-08-04T11:55:15;100550.88;;;38.40;20.87
68077;BME280;54866;53.458;14.540;2022-08-04T11:57:46;100535.64;;;38.39;20.67
68077;BME280;54866;53.458;14.540;2022-08-04T12:00:18;100544.27;;;38.31;20.48
68077;BME280;54866;53.458;14.540;2022-08-04T12:03:01;100548.70;;;38.16;20.88
68077;BME280;54866;53.458;14.540;2022-08-04T12:05:39;100560.65;;;37.97;20.53
68077;BME280;54866;53.458;14.540;2022-08-04T12:08:28;100545.50;;;37.89;20.28
68077;BME280;54866;53.458;14.540;2022-08-04T12:11:13;100545.88;;;37.82;20.12
68077;BME280;54866;53.458;14.540;2022-08-04T12:13:49;100545.54;;;37.80;19.86
68077;BME280;54866;53.458;14.540;2022-08-04T12:16:26;100529.10;;;37.64;20.36
68077;BME280;54866;53.458;14.540;2022-08-04T12:19:00;100545.67;;;37.50;20.54
68077;BME280;54866;53.458;14.540;2022-08-04T12:21:34;100537.34;;;37.41;20.53
68077;BME280;54866;53.458;14.540;2022-08-04T12:24:15;100530.98;;;37.39;20.84
68077;BME280;54866;53.458;14.540;2022-08-04T12:26:50;100535.92;;;37.43;20.76
68077;BME280;54866;53.458;14.540;2022-08-04T12:29:22;100530.95;;;37.50;20.67
68077;BME280;54866;53.458;14.540;2022-08-04T12:31:59;100542.64;;;37.46;20.66
68077;BME280;54866;53.458;14.540;2022-08-04T12:34:33;100529.83;;;37.39;21.25
68077;BME280;54866;53.458;14.540;2022-08-04T12:37:08;100529.64;;;37.49;20.98
68077;BME280;54866;53.458;14.540;2022-08-04T12:39:42;100533.17;;;37.55;20.27
68077;BME280;54866;53.458;14.540;2022-08-04T12:42:21;100527.89;;;37.53;20.37
68077;BME280;54866;53.458;14.540;2022-08-04T12:44:52;100534.59;;;37.57;20.39
68077;BME280;54866;53.458;14.540;2022-08-04T12:47:26;100521.30;;;37.64;20.06
68077;BME280;54866;53.458;14.540;2022-08-04T12:50:01;100528.21;;;37.65;20.07
68077;BME280;54866;53.458;14.540;2022-08-04T12:52:40;100512.64;;;37.61;20.26
68077;BME280;54866;53.458;14.540;2022-08-04T12:55:11;100527.27;;;37.61;20.21
68077;BME280;54866;53.458;14.540;2022-08-04T12:57:42;100510.90;;;37.60;20.09
68077;BME280;54866;53.458;14.540;2022-08-04T13:00:24;100519.92;;;37.59;20.08
68077;BME280;54866;53.458;14.540;2022-08-04T13:02:54;100510.17;;;37.58;19.92
68077;BME280;54866;53.458;14.540;2022-08-04T13:05:30;100509.84;;;37.67;19.55
68077;BME280;54866;53.458;14.540;2022-08-04T13:08:01;100507.63;;;37.71;19.43
68077;BME280;54866;53.458;14.540;2022-08-04T13:10:38;100510.16;;;37.68;19.81
68077;BME280;54866;53.458;14.540;2022-08-04T13:13:16;100504.27;;;37.70;19.63
68077;BME280;54866;53.458;14.540;2022-08-04T13:15:57;100498.70;;;37.70;19.76
68077;BME280;54866;53.458;14.540;2022-08-04T13:18:29;100489.49;;;37.76;20.00
68077;BME280;54866;53.458;14.540;2022-08-04T13:21:11;100483.10;;;37.79;19.68
68077;BME280;54866;53.458;14.540;2022-08-04T13:23:42;100489.26;;;37.83;19.28
68077;BME280;54866;53.458;14.540;2022-08-04T13:26:14;100478.75;;;37.84;19.23
68077;BME280;54866;53.458;14.540;2022-08-04T13:28:47;100479.84;;;37.88;19.40
68077;BME280;54866;53.458;14.540;2022-08-04T13:31:20;100492.11;;;37.72;19.61
68077;BME280;54866;53.458;14.540;2022-08-04T13:33:53;100487.73;;;37.63;19.46
68077;BME280;54866;53.458;14.540;2022-08-04T13:36:25;100489.20;;;37.65;19.69
68077;BME280;54866;53.458;14.540;2022-08-04T13:38:59;100474.85;;;37.75;19.80
68077;BME280;54866;53.458;14.540;2022-08-04T13:41:31;100474.90;;;37.72;19.70
68077;BME280;54866;53.458;14.540;2022-08-04T13:44:04;100463.39;;;37.65;19.89
68077;BME280;54866;53.458;14.540;2022-08-04T13:46:45;100462.29;;;37.64;20.01
68077;BME280;54866;53.458;14.540;2022-08-04T13:49:18;100461.11;;;37.57;20.11
68077;BME280;54866;53.458;14.540;2022-08-04T13:51:50;100471.47;;;37.55;19.99
68077;BME280;54866;53.458;14.540;2022-08-04T13:54:22;100468.63;;;37.44;20.16